sensor_id;sensor_type;location;lat;lon;timestamp;P1;durP1;ratioP1;P2;durP2;ratioP2
46899;SDS011;32647;49.382;7.078;2022-07-29T00:01:39;6.25;;;4.35;;
46899;SDS011;32647;49.382;7.078;2022-07-29T00:04:25;5.75;;;4.25;;
46899;SDS011;32647;49.382;7.078;2022-07-29T00:07:11;6.15;;;4.75;;
46899;SDS011;32647;49.382;7.078;2022-07-29T00:09:57;5.13;;;4.57;;
46899;SDS011;32647;49.382;7.078;2022-07-29T00:12:43;8.70;;;5.20;;
46899;SDS011;32647;49.382;7.078;2022-07-29T00:15:29;9.95;;;5.15;;
46899;SDS011;32647;49.382;7.078;2022-07-29T00:18:15;9.68;;;5.63;;
46899;SDS011;32647;49.382;7.078;2022-07-29T00:21:01;7.38;;;4.82;;
46899;SDS011;32647;49.382;7.078;2022-07-29T00:23:47;6.15;;;4.90;;
46899;SDS011;32647;49.382;7.078;2022-07-29T00:26:34;6.22;;;4.57;;
46899;SDS011;32647;49.382;7.078;2022-07-29T00:29:20;7.10;;;4.85;;
46899;SDS011;32647;49.382;7.078;2022-07-29T00:32:06;5.45;;;4.78;;
46899;SDS011;32647;49.382;7.078;2022-07-29T00:34:52;7.90;;;5.45;;
46899;SDS011;32647;49.382;7.078;2022-07-29T00:37:57;6.93;;;4.93;;
46899;SDS011;32647;49.382;7.078;2022-07-29T00:40:43;6.97;;;5.03;;
46899;SDS011;32647;49.382;7.078;2022-07-29T00:43:30;7.53;;;5.10;;
46899;SDS011;32647;49.382;7.078;2022-07-29T00:46:16;10.50;;;5.82;;
46899;SDS011;32647;49.382;7.078;2022-07-29T00:49:07;6.32;;;4.80;;
46899;SDS011;32647;49.382;7.078;2022-07-29T00:51:53;6.82;;;4.68;;
46899;SDS011;32647;49.382;7.078;2022-07-29T00:54:43;6.68;;;5.05;;
46899;SDS011;32647;49.382;7.078;2022-07-29T00:57:31;6.75;;;4.75;;
46899;SDS011;32647;49.382;7.078;2022-07-29T01:00:20;8.00;;;4.90;;
46899;SDS011;32647;49.382;7.078;2022-07-29T01:03:08;7.97;;;4.95;;
46899;SDS011;32647;49.382;7.078;2022-07-29T01:05:54;5.72;;;4.35;;
46899;SDS011;32647;49.382;7.078;2022-07-29T01:08:42;6.40;;;4.53;;
46899;SDS011;32647;49.382;7.078;2022-07-29T01:11:38;7.53;;;4.50;;
46899;SDS011;32647;49.382;7.078;2022-07-29T01:14:28;10.55;;;4.70;;
46899;SDS011;32647;49.382;7.078;2022-07-29T01:17:30;5.95;;;4.15;;
46899;SDS011;32647;49.382;7.078;2022-07-29T01:20:21;7.20;;;4.88;;
46899;SDS011;32647;49.382;7.078;2022-07-29T01:23:23;7.45;;;4.38;;
46899;SDS011;32647;49.382;7.078;2022-07-29T01:29:26;7.18;;;4.63;;
46899;SDS011;32647;49.382;7.078;2022-07-29T01:32:22;6.00;;;4.10;;
46899;SDS011;32647;49.382;7.078;2022-07-29T01:38:27;5.35;;;4.40;;
46899;SDS011;32647;49.382;7.078;2022-07-29T01:41:17;8.80;;;4.60;;
46899;SDS011;32647;49.382;7.078;2022-07-29T01:44:14;5.90;;;4.57;;
46899;SDS011;32647;49.382;7.078;2022-07-29T01:47:08;6.88;;;4.63;;
46899;SDS011;32647;49.382;7.078;2022-07-29T01:49:58;6.15;;;4.57;;
46899;SDS011;32647;49.382;7.078;2022-07-29T01:52:52;6.05;;;5.18;;
46899;SDS011;32647;49.382;7.078;2022-07-29T01:55:42;6.15;;;4.57;;
46899;SDS011;32647;49.382;7.078;2022-07-29T01:58:31;6.72;;;4.40;;
46899;SDS011;32647;49.382;7.078;2022-07-29T02:01:18;4.55;;;3.92;;
46899;SDS011;32647;49.382;7.078;2022-07-29T02:04:07;5.97;;;4.82;;
46899;SDS011;32647;49.382;7.078;2022-07-29T02:07:00;8.02;;;4.28;;
46899;SDS011;32647;49.382;7.078;2022-07-29T02:09:50;5.22;;;4.40;;
46899;SDS011;32647;49.382;7.078;2022-07-29T02:12:38;6.95;;;4.80;;
46899;SDS011;32647;49.382;7.078;2022-07-29T02:15:26;5.63;;;4.20;;
46899;SDS011;32647;49.382;7.078;2022-07-29T02:18:16;5.70;;;4.60;;
46899;SDS011;32647;49.382;7.078;2022-07-29T02:21:05;8.55;;;4.57;;
46899;SDS011;32647;49.382;7.078;2022-07-29T02:23:53;5.05;;;4.38;;
46899;SDS011;32647;49.382;7.078;2022-07-29T02:26:42;5.57;;;4.20;;
46899;SDS011;32647;49.382;7.078;2022-07-29T02:29:30;4.68;;;4.10;;
46899;SDS011;32647;49.382;7.078;2022-07-29T02:32:21;5.13;;;4.63;;
46899;SDS011;32647;49.382;7.078;2022-07-29T02:35:13;6.00;;;4.70;;
46899;SDS011;32647;49.382;7.078;2022-07-29T02:38:00;7.90;;;4.60;;
46899;SDS011;32647;49.382;7.078;2022-07-29T02:41:13;6.57;;;4.75;;
46899;SDS011;32647;49.382;7.078;2022-07-29T02:44:15;6.53;;;4.68;;
46899;SDS011;32647;49.382;7.078;2022-07-29T02:50:15;4.40;;;4.00;;
46899;SDS011;32647;49.382;7.078;2022-07-29T02:53:07;7.05;;;4.85;;
46899;SDS011;32647;49.382;7.078;2022-07-29T02:55:59;6.03;;;5.00;;
46899;SDS011;32647;49.382;7.078;2022-07-29T02:58:58;5.03;;;4.53;;
46899;SDS011;32647;49.382;7.078;2022-07-29T03:01:51;5.90;;;4.88;;
46899;SDS011;32647;49.382;7.078;2022-07-29T03:04:41;8.73;;;5.60;;
46899;SDS011;32647;49.382;7.078;2022-07-29T03:07:29;6.53;;;5.20;;
46899;SDS011;32647;49.382;7.078;2022-07-29T03:10:16;5.38;;;4.88;;
46899;SDS011;32647;49.382;7.078;2022-07-29T03:13:03;6.45;;;4.45;;
46899;SDS011;32647;49.382;7.078;2022-07-29T03:15:51;6.18;;;5.18;;
46899;SDS011;32647;49.382;7.078;2022-07-29T03:18:48;5.68;;;4.78;;
46899;SDS011;32647;49.382;7.078;2022-07-29T03:21:34;8.32;;;4.85;;
46899;SDS011;32647;49.382;7.078;2022-07-29T03:24:27;6.68;;;4.88;;
46899;SDS011;32647;49.382;7.078;2022-07-29T03:27:18;5.20;;;4.63;;
46899;SDS011;32647;49.382;7.078;2022-07-29T03:30:05;6.00;;;4.53;;
46899;SDS011;32647;49.382;7.078;2022-07-29T03:32:55;5.50;;;4.82;;
46899;SDS011;32647;49.382;7.078;2022-07-29T03:35:41;5.85;;;4.45;;
46899;SDS011;32647;49.382;7.078;2022-07-29T03:38:27;6.90;;;5.00;;
46899;SDS011;32647;49.382;7.078;2022-07-29T03:41:18;6.20;;;5.30;;
46899;SDS011;32647;49.382;7.078;2022-07-29T03:44:07;9.15;;;5.47;;
46899;SDS011;32647;49.382;7.078;2022-07-29T03:46:55;6.30;;;5.28;;
46899;SDS011;32647;49.382;7.078;2022-07-29T03:49:47;5.90;;;5.30;;
46899;SDS011;32647;49.382;7.078;2022-07-29T03:52:39;7.30;;;5.22;;
46899;SDS011;32647;49.382;7.078;2022-07-29T03:55:29;6.60;;;5.80;;
46899;SDS011;32647;49.382;7.078;2022-07-29T03:58:22;6.32;;;5.22;;
46899;SDS011;32647;49.382;7.078;2022-07-29T04:01:15;7.00;;;5.22;;
46899;SDS011;32647;49.382;7.078;2022-07-29T04:04:03;6.53;;;5.00;;
46899;SDS011;32647;49.382;7.078;2022-07-29T04:06:56;8.90;;;5.50;;
46899;SDS011;32647;49.382;7.078;2022-07-29T04:09:48;7.55;;;4.80;;
46899;SDS011;32647;49.382;7.078;2022-07-29T04:12:34;9.90;;;5.03;;
46899;SDS011;32647;49.382;7.078;2022-07-29T04:15:22;7.50;;;5.22;;
46899;SDS011;32647;49.382;7.078;2022-07-29T04:18:09;7.57;;;5.30;;
46899;SDS011;32647;49.382;7.078;2022-07-29T04:21:02;6.10;;;5.25;;
46899;SDS011;32647;49.382;7.078;2022-07-29T04:23:49;7.43;;;5.22;;
46899;SDS011;32647;49.382;7.078;2022-07-29T04:26:42;5.60;;;5.05;;
46899;SDS011;32647;49.382;7.078;2022-07-29T04:29:28;7.38;;;5.57;;
46899;SDS011;32647;49.382;7.078;2022-07-29T04:32:14;6.22;;;5.63;;
46899;SDS011;32647;49.382;7.078;2022-07-29T04:35:01;6.55;;;5.82;;
46899;SDS011;32647;49.382;7.078;2022-07-29T04:37:50;10.30;;;6.18;;
46899;SDS011;32647;49.382;7.078;2022-07-29T04:40:36;6.10;;;5.45;;
46899;SDS011;32647;49.382;7.078;2022-07-29T04:43:25;5.60;;;5.10;;
46899;SDS011;32647;49.382;7.078;2022-07-29T04:46:11;6.47;;;5.72;;
46899;SDS011;32647;49.382;7.078;2022-07-29T04:49:07;9.30;;;5.63;;
46899;SDS011;32647;49.382;7.078;2022-07-29T04:51:53;6.57;;;5.40;;
46899;SDS011;32647;49.382;7.078;2022-07-29T04:54:42;6.85;;;6.03;;
46899;SDS011;32647;49.382;7.078;2022-07-29T04:57:28;6.55;;;5.68;;
46899;SDS011;32647;49.382;7.078;2022-07-29T05:00:15;8.00;;;5.40;;
46899;SDS011;32647;49.382;7.078;2022-07-29T05:03:05;6.30;;;5.70;;
46899;SDS011;32647;49.382;7.078;2022-07-29T05:06:01;10.68;;;6.53;;
46899;SDS011;32647;49.382;7.078;2022-07-29T05:08:56;7.25;;;6.07;;
46899;SDS011;32647;49.382;7.078;2022-07-29T05:11:42;6.72;;;5.50;;
46899;SDS011;32647;49.382;7.078;2022-07-29T05:14:32;7.60;;;5.68;;
46899;SDS011;32647;49.382;7.078;2022-07-29T05:17:24;8.52;;;5.30;;
46899;SDS011;32647;49.382;7.078;2022-07-29T05:20:10;9.95;;;5.20;;
46899;SDS011;32647;49.382;7.078;2022-07-29T05:23:06;7.25;;;5.15;;
46899;SDS011;32647;49.382;7.078;2022-07-29T05:29:02;6.47;;;5.05;;
46899;SDS011;32647;49.382;7.078;2022-07-29T05:31:55;7.18;;;5.35;;
46899;SDS011;32647;49.382;7.078;2022-07-29T05:34:45;6.30;;;5.00;;
46899;SDS011;32647;49.382;7.078;2022-07-29T05:37:31;6.05;;;4.75;;
46899;SDS011;32647;49.382;7.078;2022-07-29T05:40:27;7.35;;;4.43;;
46899;SDS011;32647;49.382;7.078;2022-07-29T05:43:13;8.35;;;4.45;;
46899;SDS011;32647;49.382;7.078;2022-07-29T05:46:02;10.50;;;5.15;;
46899;SDS011;32647;49.382;7.078;2022-07-29T05:48:49;5.65;;;5.07;;
46899;SDS011;32647;49.382;7.078;2022-07-29T05:51:35;4.68;;;4.28;;
46899;SDS011;32647;49.382;7.078;2022-07-29T05:54:22;9.95;;;4.93;;
46899;SDS011;32647;49.382;7.078;2022-07-29T05:57:08;8.48;;;4.82;;
46899;SDS011;32647;49.382;7.078;2022-07-29T05:59:54;4.15;;;3.75;;
46899;SDS011;32647;49.382;7.078;2022-07-29T06:02:43;8.63;;;4.10;;
46899;SDS011;32647;49.382;7.078;2022-07-29T06:05:30;6.63;;;4.10;;
46899;SDS011;32647;49.382;7.078;2022-07-29T06:08:16;4.80;;;4.22;;
46899;SDS011;32647;49.382;7.078;2022-07-29T06:11:08;5.38;;;4.03;;
46899;SDS011;32647;49.382;7.078;2022-07-29T06:13:54;10.77;;;4.30;;
46899;SDS011;32647;49.382;7.078;2022-07-29T06:16:47;11.10;;;4.15;;
46899;SDS011;32647;49.382;7.078;2022-07-29T06:19:40;9.68;;;4.90;;
46899;SDS011;32647;49.382;7.078;2022-07-29T06:22:27;8.48;;;3.75;;
46899;SDS011;32647;49.382;7.078;2022-07-29T06:25:14;6.55;;;3.67;;
46899;SDS011;32647;49.382;7.078;2022-07-29T06:28:06;6.60;;;3.53;;
46899;SDS011;32647;49.382;7.078;2022-07-29T06:30:59;11.07;;;4.10;;
46899;SDS011;32647;49.382;7.078;2022-07-29T06:33:48;4.15;;;3.42;;
46899;SDS011;32647;49.382;7.078;2022-07-29T06:36:35;4.00;;;3.13;;
46899;SDS011;32647;49.382;7.078;2022-07-29T06:39:25;6.28;;;3.83;;
46899;SDS011;32647;49.382;7.078;2022-07-29T06:42:33;8.50;;;3.50;;
46899;SDS011;32647;49.382;7.078;2022-07-29T06:45:23;6.50;;;3.53;;
46899;SDS011;32647;49.382;7.078;2022-07-29T06:48:09;10.48;;;3.83;;
46899;SDS011;32647;49.382;7.078;2022-07-29T06:50:55;3.78;;;3.00;;
46899;SDS011;32647;49.382;7.078;2022-07-29T06:53:41;8.38;;;3.53;;
46899;SDS011;32647;49.382;7.078;2022-07-29T06:56:27;6.22;;;3.60;;
46899;SDS011;32647;49.382;7.078;2022-07-29T06:59:17;7.03;;;3.05;;
46899;SDS011;32647;49.382;7.078;2022-07-29T07:02:03;5.63;;;3.00;;
46899;SDS011;32647;49.382;7.078;2022-07-29T07:04:49;4.38;;;2.97;;
46899;SDS011;32647;49.382;7.078;2022-07-29T07:07:35;5.13;;;3.25;;
46899;SDS011;32647;49.382;7.078;2022-07-29T07:10:21;5.13;;;3.10;;
46899;SDS011;32647;49.382;7.078;2022-07-29T07:13:07;9.18;;;3.28;;
46899;SDS011;32647;49.382;7.078;2022-07-29T07:15:53;5.22;;;2.97;;
46899;SDS011;32647;49.382;7.078;2022-07-29T07:18:39;6.88;;;3.08;;
46899;SDS011;32647;49.382;7.078;2022-07-29T07:21:25;4.82;;;3.20;;
46899;SDS011;32647;49.382;7.078;2022-07-29T07:24:11;13.00;;;3.38;;
46899;SDS011;32647;49.382;7.078;2022-07-29T07:26:57;5.03;;;3.17;;
46899;SDS011;32647;49.382;7.078;2022-07-29T07:29:44;9.60;;;3.33;;
46899;SDS011;32647;49.382;7.078;2022-07-29T07:32:30;5.55;;;3.13;;
46899;SDS011;32647;49.382;7.078;2022-07-29T07:35:16;11.10;;;3.38;;
46899;SDS011;32647;49.382;7.078;2022-07-29T07:38:02;8.13;;;3.38;;
46899;SDS011;32647;49.382;7.078;2022-07-29T07:40:48;6.40;;;3.70;;
46899;SDS011;32647;49.382;7.078;2022-07-29T07:43:34;6.00;;;3.47;;
46899;SDS011;32647;49.382;7.078;2022-07-29T07:46:20;3.97;;;3.22;;
46899;SDS011;32647;49.382;7.078;2022-07-29T07:49:06;3.97;;;3.08;;
46899;SDS011;32647;49.382;7.078;2022-07-29T07:51:52;4.40;;;3.30;;
46899;SDS011;32647;49.382;7.078;2022-07-29T07:54:38;5.38;;;2.90;;
46899;SDS011;32647;49.382;7.078;2022-07-29T07:57:24;3.38;;;2.78;;
46899;SDS011;32647;49.382;7.078;2022-07-29T08:00:10;5.70;;;3.20;;
46899;SDS011;32647;49.382;7.078;2022-07-29T08:02:57;6.47;;;3.03;;
46899;SDS011;32647;49.382;7.078;2022-07-29T08:05:43;5.55;;;2.80;;
46899;SDS011;32647;49.382;7.078;2022-07-29T08:08:29;4.88;;;3.25;;
46899;SDS011;32647;49.382;7.078;2022-07-29T08:11:16;4.65;;;3.17;;
46899;SDS011;32647;49.382;7.078;2022-07-29T08:14:02;4.68;;;3.00;;
46899;SDS011;32647;49.382;7.078;2022-07-29T08:16:48;4.97;;;3.42;;
46899;SDS011;32647;49.382;7.078;2022-07-29T08:19:34;10.48;;;3.40;;
46899;SDS011;32647;49.382;7.078;2022-07-29T08:22:21;6.68;;;3.33;;
46899;SDS011;32647;49.382;7.078;2022-07-29T08:25:07;4.07;;;3.20;;
46899;SDS011;32647;49.382;7.078;2022-07-29T08:27:53;8.15;;;3.60;;
46899;SDS011;32647;49.382;7.078;2022-07-29T08:30:39;5.60;;;3.15;;
46899;SDS011;32647;49.382;7.078;2022-07-29T08:33:25;6.43;;;3.47;;
46899;SDS011;32647;49.382;7.078;2022-07-29T08:36:11;4.78;;;3.00;;
46899;SDS011;32647;49.382;7.078;2022-07-29T08:38:58;7.13;;;3.20;;
46899;SDS011;32647;49.382;7.078;2022-07-29T08:41:45;6.85;;;3.20;;
46899;SDS011;32647;49.382;7.078;2022-07-29T08:44:31;5.07;;;3.38;;
46899;SDS011;32647;49.382;7.078;2022-07-29T08:47:18;13.32;;;3.47;;
46899;SDS011;32647;49.382;7.078;2022-07-29T08:50:04;5.82;;;3.30;;
46899;SDS011;32647;49.382;7.078;2022-07-29T08:52:50;10.27;;;3.45;;
46899;SDS011;32647;49.382;7.078;2022-07-29T08:55:41;5.78;;;3.05;;
46899;SDS011;32647;49.382;7.078;2022-07-29T08:58:31;8.48;;;2.97;;
46899;SDS011;32647;49.382;7.078;2022-07-29T09:01:22;10.18;;;3.35;;
46899;SDS011;32647;49.382;7.078;2022-07-29T09:04:10;6.47;;;2.95;;
46899;SDS011;32647;49.382;7.078;2022-07-29T09:06:57;7.93;;;3.40;;
46899;SDS011;32647;49.382;7.078;2022-07-29T09:09:46;5.85;;;2.78;;
46899;SDS011;32647;49.382;7.078;2022-07-29T09:12:32;12.05;;;2.83;;
46899;SDS011;32647;49.382;7.078;2022-07-29T09:15:18;7.07;;;3.47;;
46899;SDS011;32647;49.382;7.078;2022-07-29T09:18:04;4.40;;;2.83;;
46899;SDS011;32647;49.382;7.078;2022-07-29T09:20:53;7.18;;;3.15;;
46899;SDS011;32647;49.382;7.078;2022-07-29T09:24:08;5.60;;;3.05;;
46899;SDS011;32647;49.382;7.078;2022-07-29T09:26:56;5.90;;;2.78;;
46899;SDS011;32647;49.382;7.078;2022-07-29T09:29:42;8.02;;;2.85;;
46899;SDS011;32647;49.382;7.078;2022-07-29T09:32:29;7.22;;;2.78;;
46899;SDS011;32647;49.382;7.078;2022-07-29T09:35:19;7.57;;;3.22;;
46899;SDS011;32647;49.382;7.078;2022-07-29T09:38:13;6.47;;;3.10;;
46899;SDS011;32647;49.382;7.078;2022-07-29T09:41:00;7.88;;;3.22;;
46899;SDS011;32647;49.382;7.078;2022-07-29T09:43:54;7.93;;;2.70;;
46899;SDS011;32647;49.382;7.078;2022-07-29T09:47:00;6.65;;;3.05;;
46899;SDS011;32647;49.382;7.078;2022-07-29T09:49:55;6.07;;;3.13;;
46899;SDS011;32647;49.382;7.078;2022-07-29T09:52:50;7.18;;;3.05;;
46899;SDS011;32647;49.382;7.078;2022-07-29T09:55:49;5.63;;;2.85;;
46899;SDS011;32647;49.382;7.078;2022-07-29T09:58:36;5.07;;;2.85;;
46899;SDS011;32647;49.382;7.078;2022-07-29T10:01:28;7.03;;;3.35;;
46899;SDS011;32647;49.382;7.078;2022-07-29T10:04:15;9.52;;;2.92;;
46899;SDS011;32647;49.382;7.078;2022-07-29T10:07:02;4.53;;;2.78;;
46899;SDS011;32647;49.382;7.078;2022-07-29T10:09:54;15.15;;;3.03;;
46899;SDS011;32647;49.382;7.078;2022-07-29T10:12:51;7.72;;;2.83;;
46899;SDS011;32647;49.382;7.078;2022-07-29T10:15:40;4.53;;;2.90;;
46899;SDS011;32647;49.382;7.078;2022-07-29T10:18:29;7.47;;;2.67;;
46899;SDS011;32647;49.382;7.078;2022-07-29T10:21:16;5.10;;;2.35;;
46899;SDS011;32647;49.382;7.078;2022-07-29T10:24:02;5.85;;;2.28;;
46899;SDS011;32647;49.382;7.078;2022-07-29T10:26:50;5.63;;;2.40;;
46899;SDS011;32647;49.382;7.078;2022-07-29T10:29:36;6.85;;;2.40;;
46899;SDS011;32647;49.382;7.078;2022-07-29T10:32:38;4.93;;;2.30;;
46899;SDS011;32647;49.382;7.078;2022-07-29T10:42:19;7.72;;;2.40;;
46899;SDS011;32647;49.382;7.078;2022-07-29T10:45:09;3.80;;;2.30;;
46899;SDS011;32647;49.382;7.078;2022-07-29T10:48:04;4.35;;;2.20;;
46899;SDS011;32647;49.382;7.078;2022-07-29T10:51:09;7.00;;;2.20;;
46899;SDS011;32647;49.382;7.078;2022-07-29T10:56:48;3.13;;;2.00;;
46899;SDS011;32647;49.382;7.078;2022-07-29T10:59:34;4.82;;;2.30;;
46899;SDS011;32647;49.382;7.078;2022-07-29T11:05:18;4.88;;;2.10;;
46899;SDS011;32647;49.382;7.078;2022-07-29T11:14:07;3.63;;;1.90;;
46899;SDS011;32647;49.382;7.078;2022-07-29T11:17:03;4.40;;;1.90;;
46899;SDS011;32647;49.382;7.078;2022-07-29T11:19:50;5.60;;;2.15;;
46899;SDS011;32647;49.382;7.078;2022-07-29T11:22:37;2.55;;;1.75;;
46899;SDS011;32647;49.382;7.078;2022-07-29T11:25:22;6.47;;;2.03;;
46899;SDS011;32647;49.382;7.078;2022-07-29T11:28:10;2.65;;;1.50;;
46899;SDS011;32647;49.382;7.078;2022-07-29T11:31:02;5.97;;;1.88;;
46899;SDS011;32647;49.382;7.078;2022-07-29T11:33:48;4.88;;;1.50;;
46899;SDS011;32647;49.382;7.078;2022-07-29T11:36:34;5.78;;;2.10;;
46899;SDS011;32647;49.382;7.078;2022-07-29T11:39:26;5.53;;;1.90;;
46899;SDS011;32647;49.382;7.078;2022-07-29T11:47:52;4.85;;;2.08;;
46899;SDS011;32647;49.382;7.078;2022-07-29T11:50:40;6.60;;;2.20;;
46899;SDS011;32647;49.382;7.078;2022-07-29T11:53:26;4.65;;;1.85;;
46899;SDS011;32647;49.382;7.078;2022-07-29T11:56:12;4.13;;;2.10;;
46899;SDS011;32647;49.382;7.078;2022-07-29T11:59:03;4.53;;;1.92;;
46899;SDS011;32647;49.382;7.078;2022-07-29T12:01:58;3.47;;;1.80;;
46899;SDS011;32647;49.382;7.078;2022-07-29T12:04:51;6.47;;;1.90;;
46899;SDS011;32647;49.382;7.078;2022-07-29T12:07:38;8.07;;;1.90;;
46899;SDS011;32647;49.382;7.078;2022-07-29T12:10:30;5.45;;;2.00;;
46899;SDS011;32647;49.382;7.078;2022-07-29T12:13:17;6.75;;;1.70;;
46899;SDS011;32647;49.382;7.078;2022-07-29T12:16:04;3.50;;;2.10;;
46899;SDS011;32647;49.382;7.078;2022-07-29T12:18:54;4.97;;;1.88;;
46899;SDS011;32647;49.382;7.078;2022-07-29T12:21:48;5.60;;;2.10;;
46899;SDS011;32647;49.382;7.078;2022-07-29T12:24:44;6.97;;;1.88;;
46899;SDS011;32647;49.382;7.078;2022-07-29T12:27:30;7.28;;;2.65;;
46899;SDS011;32647;49.382;7.078;2022-07-29T12:30:18;4.40;;;1.90;;
46899;SDS011;32647;49.382;7.078;2022-07-29T12:33:10;8.73;;;2.30;;
46899;SDS011;32647;49.382;7.078;2022-07-29T12:36:01;3.75;;;2.08;;
46899;SDS011;32647;49.382;7.078;2022-07-29T12:38:48;3.83;;;2.40;;
46899;SDS011;32647;49.382;7.078;2022-07-29T12:41:34;4.50;;;1.95;;
46899;SDS011;32647;49.382;7.078;2022-07-29T12:44:21;4.50;;;2.60;;
46899;SDS011;32647;49.382;7.078;2022-07-29T12:47:07;5.10;;;2.50;;
46899;SDS011;32647;49.382;7.078;2022-07-29T12:50:12;3.63;;;2.25;;
46899;SDS011;32647;49.382;7.078;2022-07-29T12:53:13;7.35;;;2.45;;
46899;SDS011;32647;49.382;7.078;2022-07-29T12:55:59;7.80;;;2.10;;
46899;SDS011;32647;49.382;7.078;2022-07-29T12:58:47;7.03;;;2.67;;
46899;SDS011;32647;49.382;7.078;2022-07-29T13:01:36;7.10;;;2.38;;
46899;SDS011;32647;49.382;7.078;2022-07-29T13:04:26;4.00;;;2.33;;
46899;SDS011;32647;49.382;7.078;2022-07-29T13:07:14;6.25;;;2.28;;
46899;SDS011;32647;49.382;7.078;2022-07-29T13:10:17;4.97;;;2.30;;
46899;SDS011;32647;49.382;7.078;2022-07-29T13:13:06;4.45;;;2.20;;
46899;SDS011;32647;49.382;7.078;2022-07-29T13:16:15;9.48;;;2.53;;
46899;SDS011;32647;49.382;7.078;2022-07-29T13:19:07;4.85;;;2.53;;
46899;SDS011;32647;49.382;7.078;2022-07-29T13:21:57;5.43;;;2.47;;
46899;SDS011;32647;49.382;7.078;2022-07-29T13:24:59;4.70;;;2.00;;
46899;SDS011;32647;49.382;7.078;2022-07-29T13:27:50;8.32;;;2.70;;
46899;SDS011;32647;49.382;7.078;2022-07-29T13:30:36;7.45;;;2.72;;
46899;SDS011;32647;49.382;7.078;2022-07-29T13:33:22;6.25;;;2.40;;
46899;SDS011;32647;49.382;7.078;2022-07-29T13:36:10;5.35;;;2.47;;
46899;SDS011;32647;49.382;7.078;2022-07-29T13:38:56;8.73;;;2.47;;
46899;SDS011;32647;49.382;7.078;2022-07-29T13:41:42;5.68;;;2.22;;
46899;SDS011;32647;49.382;7.078;2022-07-29T13:44:28;5.57;;;2.55;;
46899;SDS011;32647;49.382;7.078;2022-07-29T13:47:14;5.75;;;2.30;;
46899;SDS011;32647;49.382;7.078;2022-07-29T13:50:03;8.90;;;2.55;;
46899;SDS011;32647;49.382;7.078;2022-07-29T13:52:50;6.20;;;2.50;;
46899;SDS011;32647;49.382;7.078;2022-07-29T13:55:37;9.20;;;3.05;;
46899;SDS011;32647;49.382;7.078;2022-07-29T13:58:23;8.43;;;2.70;;
46899;SDS011;32647;49.382;7.078;2022-07-29T14:01:09;7.38;;;2.70;;
46899;SDS011;32647;49.382;7.078;2022-07-29T14:03:55;9.05;;;2.72;;
46899;SDS011;32647;49.382;7.078;2022-07-29T14:06:41;6.97;;;2.90;;
46899;SDS011;32647;49.382;7.078;2022-07-29T14:09:27;5.80;;;2.45;;
46899;SDS011;32647;49.382;7.078;2022-07-29T14:12:13;10.07;;;2.53;;
46899;SDS011;32647;49.382;7.078;2022-07-29T14:14:59;11.00;;;2.47;;
46899;SDS011;32647;49.382;7.078;2022-07-29T14:17:45;6.85;;;3.10;;
46899;SDS011;32647;49.382;7.078;2022-07-29T14:20:31;6.07;;;2.55;;
46899;SDS011;32647;49.382;7.078;2022-07-29T14:23:17;7.68;;;3.15;;
46899;SDS011;32647;49.382;7.078;2022-07-29T14:26:04;8.98;;;3.65;;
46899;SDS011;32647;49.382;7.078;2022-07-29T14:28:50;7.20;;;2.80;;
46899;SDS011;32647;49.382;7.078;2022-07-29T14:31:36;3.78;;;2.47;;
46899;SDS011;32647;49.382;7.078;2022-07-29T14:34:22;8.65;;;3.22;;
46899;SDS011;32647;49.382;7.078;2022-07-29T14:37:08;6.32;;;2.67;;
46899;SDS011;32647;49.382;7.078;2022-07-29T14:39:54;5.30;;;2.75;;
46899;SDS011;32647;49.382;7.078;2022-07-29T14:42:44;5.75;;;2.88;;
46899;SDS011;32647;49.382;7.078;2022-07-29T14:45:30;5.93;;;2.83;;
46899;SDS011;32647;49.382;7.078;2022-07-29T14:48:16;4.78;;;2.80;;
46899;SDS011;32647;49.382;7.078;2022-07-29T14:51:02;8.38;;;3.08;;
46899;SDS011;32647;49.382;7.078;2022-07-29T14:53:48;5.05;;;2.78;;
46899;SDS011;32647;49.382;7.078;2022-07-29T14:56:35;4.93;;;2.70;;
46899;SDS011;32647;49.382;7.078;2022-07-29T14:59:21;9.75;;;2.53;;
46899;SDS011;32647;49.382;7.078;2022-07-29T15:02:07;6.88;;;2.47;;
46899;SDS011;32647;49.382;7.078;2022-07-29T15:04:53;3.65;;;2.40;;
46899;SDS011;32647;49.382;7.078;2022-07-29T15:07:39;4.03;;;2.60;;
46899;SDS011;32647;49.382;7.078;2022-07-29T15:10:25;4.38;;;2.47;;
46899;SDS011;32647;49.382;7.078;2022-07-29T15:13:12;5.97;;;2.65;;
46899;SDS011;32647;49.382;7.078;2022-07-29T15:15:58;5.00;;;2.63;;
46899;SDS011;32647;49.382;7.078;2022-07-29T15:18:44;5.05;;;2.65;;
46899;SDS011;32647;49.382;7.078;2022-07-29T15:21:30;13.63;;;3.22;;
46899;SDS011;32647;49.382;7.078;2022-07-29T15:24:17;9.60;;;2.67;;
46899;SDS011;32647;49.382;7.078;2022-07-29T15:27:06;8.45;;;2.60;;
46899;SDS011;32647;49.382;7.078;2022-07-29T15:29:52;4.38;;;2.83;;
46899;SDS011;32647;49.382;7.078;2022-07-29T15:32:38;12.30;;;3.08;;
46899;SDS011;32647;49.382;7.078;2022-07-29T15:35:24;6.47;;;3.05;;
46899;SDS011;32647;49.382;7.078;2022-07-29T15:38:11;3.53;;;2.65;;
46899;SDS011;32647;49.382;7.078;2022-07-29T15:40:57;8.07;;;2.78;;
46899;SDS011;32647;49.382;7.078;2022-07-29T15:43:43;9.18;;;2.72;;
46899;SDS011;32647;49.382;7.078;2022-07-29T15:46:32;5.45;;;3.03;;
46899;SDS011;32647;49.382;7.078;2022-07-29T15:49:37;5.63;;;3.20;;
46899;SDS011;32647;49.382;7.078;2022-07-29T15:52:25;4.28;;;2.75;;
46899;SDS011;32647;49.382;7.078;2022-07-29T15:55:11;8.30;;;2.70;;
46899;SDS011;32647;49.382;7.078;2022-07-29T15:57:57;8.68;;;3.10;;
46899;SDS011;32647;49.382;7.078;2022-07-29T16:00:43;9.07;;;3.28;;
46899;SDS011;32647;49.382;7.078;2022-07-29T16:03:29;4.97;;;3.20;;
46899;SDS011;32647;49.382;7.078;2022-07-29T16:06:15;5.60;;;2.85;;
46899;SDS011;32647;49.382;7.078;2022-07-29T16:09:03;9.85;;;2.97;;
46899;SDS011;32647;49.382;7.078;2022-07-29T16:11:52;6.25;;;2.60;;
46899;SDS011;32647;49.382;7.078;2022-07-29T16:14:45;4.07;;;2.80;;
46899;SDS011;32647;49.382;7.078;2022-07-29T16:17:36;3.40;;;2.50;;
46899;SDS011;32647;49.382;7.078;2022-07-29T16:20:24;3.63;;;2.58;;
46899;SDS011;32647;49.382;7.078;2022-07-29T16:23:16;3.60;;;2.28;;
46899;SDS011;32647;49.382;7.078;2022-07-29T16:26:09;6.45;;;2.58;;
46899;SDS011;32647;49.382;7.078;2022-07-29T16:28:55;7.65;;;2.80;;
46899;SDS011;32647;49.382;7.078;2022-07-29T16:31:41;8.38;;;2.63;;
46899;SDS011;32647;49.382;7.078;2022-07-29T16:34:29;4.18;;;2.47;;
46899;SDS011;32647;49.382;7.078;2022-07-29T16:37:17;6.65;;;2.63;;
46899;SDS011;32647;49.382;7.078;2022-07-29T16:40:04;7.63;;;3.28;;
46899;SDS011;32647;49.382;7.078;2022-07-29T16:42:53;4.22;;;2.67;;
46899;SDS011;32647;49.382;7.078;2022-07-29T16:45:42;5.85;;;2.50;;
46899;SDS011;32647;49.382;7.078;2022-07-29T16:48:28;8.57;;;3.15;;
46899;SDS011;32647;49.382;7.078;2022-07-29T16:51:14;8.43;;;2.60;;
46899;SDS011;32647;49.382;7.078;2022-07-29T16:54:00;5.72;;;2.70;;
46899;SDS011;32647;49.382;7.078;2022-07-29T16:56:46;6.18;;;2.40;;
46899;SDS011;32647;49.382;7.078;2022-07-29T16:59:32;7.72;;;3.05;;
46899;SDS011;32647;49.382;7.078;2022-07-29T17:02:18;4.97;;;2.80;;
46899;SDS011;32647;49.382;7.078;2022-07-29T17:05:10;7.68;;;3.13;;
46899;SDS011;32647;49.382;7.078;2022-07-29T17:08:00;10.00;;;2.78;;
46899;SDS011;32647;49.382;7.078;2022-07-29T17:10:48;3.88;;;2.83;;
46899;SDS011;32647;49.382;7.078;2022-07-29T17:13:34;10.02;;;2.70;;
46899;SDS011;32647;49.382;7.078;2022-07-29T17:16:20;13.45;;;3.20;;
46899;SDS011;32647;49.382;7.078;2022-07-29T17:19:09;12.18;;;3.03;;
46899;SDS011;32647;49.382;7.078;2022-07-29T17:22:01;22.10;;;3.30;;
46899;SDS011;32647;49.382;7.078;2022-07-29T17:24:50;16.80;;;3.10;;
46899;SDS011;32647;49.382;7.078;2022-07-29T17:27:42;12.77;;;3.72;;
46899;SDS011;32647;49.382;7.078;2022-07-29T17:30:31;8.27;;;2.90;;
46899;SDS011;32647;49.382;7.078;2022-07-29T17:33:17;7.70;;;2.90;;